createdAt,value
2019-06-26T00:01:22.431Z,26.20
2019-06-26T00:03:49.990Z,26.20
2019-06-26T00:06:17.567Z,26.10
2019-06-26T00:08:45.214Z,26.10
2019-06-26T00:11:12.757Z,26.00
2019-06-26T00:13:40.409Z,26.00
2019-06-26T00:16:09.070Z,26.00
2019-06-26T00:18:36.637Z,26.00
2019-06-26T00:21:04.311Z,26.00
2019-06-26T00:23:31.858Z,25.90
2019-06-26T00:25:59.671Z,26.00
2019-06-26T00:28:27.145Z,26.00
2019-06-26T00:30:55.278Z,25.90
2019-06-26T00:33:22.766Z,25.90
2019-06-26T00:35:50.351Z,25.80
2019-06-26T00:38:19.189Z,25.70
2019-06-26T00:40:46.719Z,25.70
2019-06-26T00:43:14.385Z,25.70
2019-06-26T00:45:42.101Z,25.60
2019-06-26T00:48:10.206Z,25.60
2019-06-26T00:50:37.845Z,25.60
2019-06-26T00:53:05.439Z,25.60
2019-06-26T00:55:32.930Z,25.60
2019-06-26T00:58:00.514Z,25.50
2019-06-26T01:00:34.178Z,25.50
2019-06-26T01:03:01.693Z,25.40
2019-06-26T01:05:30.542Z,25.40
2019-06-26T01:07:58.132Z,25.30
2019-06-26T01:10:25.725Z,25.30
2019-06-26T01:12:53.265Z,25.30
2019-06-26T01:15:21.753Z,25.30
2019-06-26T01:17:49.592Z,25.20
2019-06-26T01:20:17.304Z,25.20
2019-06-26T01:22:44.897Z,25.20
2019-06-26T01:25:12.702Z,25.10
2019-06-26T01:27:41.599Z,25.10
2019-06-26T01:30:10.790Z,25.10
2019-06-26T01:32:38.492Z,25.10
2019-06-26T01:35:06.559Z,25.10
2019-06-26T01:37:40.118Z,25.00
2019-06-26T01:40:08.563Z,25.00
2019-06-26T01:42:36.130Z,25.00
2019-06-26T01:45:06.236Z,24.90
2019-06-26T01:47:33.943Z,24.90
2019-06-26T01:50:01.503Z,24.90
2019-06-26T01:52:30.695Z,24.90
2019-06-26T01:54:58.355Z,24.90
2019-06-26T01:57:26.021Z,24.80
2019-06-26T01:59:53.536Z,24.80
2019-06-26T02:02:21.294Z,24.80
2019-06-26T02:04:48.862Z,24.90
2019-06-26T02:07:16.366Z,24.90
2019-06-26T02:09:43.955Z,24.80
2019-06-26T02:12:11.571Z,24.80
2019-06-26T02:14:39.171Z,24.70
2019-06-26T02:17:06.679Z,24.70
2019-06-26T02:19:34.218Z,24.60
2019-06-26T02:22:04.078Z,24.60
2019-06-26T02:24:31.610Z,24.60
2019-06-26T02:26:59.170Z,24.60
2019-06-26T02:29:26.790Z,24.50
2019-06-26T02:31:54.273Z,24.50
2019-06-26T02:34:21.790Z,24.50
2019-06-26T02:36:49.410Z,24.50
2019-06-26T02:39:17.998Z,24.50
2019-06-26T02:41:45.409Z,24.50
2019-06-26T02:44:12.931Z,24.50
2019-06-26T02:46:40.389Z,24.50
2019-06-26T02:49:09.109Z,24.50
2019-06-26T02:51:36.673Z,24.40
2019-06-26T02:54:04.441Z,24.40
2019-06-26T02:56:31.913Z,24.40
2019-06-26T02:58:59.496Z,24.30
2019-06-26T03:01:27.320Z,24.30
2019-06-26T03:03:54.998Z,24.30
2019-06-26T03:06:22.603Z,24.30
2019-06-26T03:08:50.149Z,24.30
2019-06-26T03:11:17.791Z,24.30
2019-06-26T03:13:45.262Z,24.30
2019-06-26T03:16:12.844Z,24.30
2019-06-26T03:18:40.400Z,24.30
2019-06-26T03:21:08.046Z,24.30
2019-06-26T03:23:35.616Z,24.30
2019-06-26T03:26:03.200Z,24.30
2019-06-26T03:28:30.812Z,24.40
2019-06-26T03:30:58.439Z,24.40
2019-06-26T03:33:27.324Z,24.40
2019-06-26T03:35:54.807Z,24.40
2019-06-26T03:38:22.338Z,24.40
2019-06-26T03:40:50.774Z,24.40
2019-06-26T03:43:18.338Z,24.40
2019-06-26T03:45:46.080Z,24.40
2019-06-26T03:48:13.693Z,24.40
2019-06-26T03:50:41.289Z,24.40
2019-06-26T03:53:09.121Z,24.40
2019-06-26T03:55:36.614Z,24.40
2019-06-26T03:58:04.207Z,24.50
2019-06-26T04:00:39.800Z,24.40
2019-06-26T04:03:08.674Z,24.40
2019-06-26T04:05:36.292Z,24.40
2019-06-26T04:08:04.608Z,24.50
2019-06-26T04:10:32.051Z,24.40
2019-06-26T04:12:59.570Z,24.50
2019-06-26T04:15:40.958Z,24.50
2019-06-26T04:17:56.507Z,24.50
2019-06-26T04:20:23.973Z,24.50
2019-06-26T04:22:51.523Z,24.50
2019-06-26T04:25:19.579Z,24.50
2019-06-26T04:27:47.743Z,24.60
2019-06-26T04:30:15.312Z,24.60
2019-06-26T04:32:43.012Z,24.60
2019-06-26T04:35:10.536Z,24.60
2019-06-26T04:37:38.446Z,24.60
2019-06-26T04:40:06.136Z,24.60
2019-06-26T04:42:37.196Z,24.60
2019-06-26T04:45:04.749Z,24.60
2019-06-26T04:47:32.435Z,24.70
2019-06-26T04:49:59.901Z,24.70
2019-06-26T04:52:47.041Z,24.70
2019-06-26T04:55:15.057Z,24.70
2019-06-26T04:57:42.809Z,24.70
2019-06-26T05:00:12.692Z,24.80
2019-06-26T05:02:40.293Z,24.80
2019-06-26T05:05:10.092Z,24.80
2019-06-26T05:07:37.688Z,24.80
2019-06-26T05:10:06.653Z,24.90
2019-06-26T05:12:34.513Z,24.90
2019-06-26T05:15:02.297Z,24.90
2019-06-26T05:17:30.032Z,24.90
2019-06-26T05:19:57.645Z,25.00
2019-06-26T05:22:25.396Z,25.10
2019-06-26T05:24:53.079Z,25.10
2019-06-26T05:27:21.169Z,25.10
2019-06-26T05:29:48.694Z,25.10
2019-06-26T05:32:16.153Z,25.10
2019-06-26T05:34:43.836Z,25.20
2019-06-26T05:37:11.454Z,25.30
2019-06-26T05:39:39.037Z,25.30
2019-06-26T05:42:06.953Z,25.40
2019-06-26T05:44:34.458Z,25.50
2019-06-26T05:47:01.947Z,25.50
2019-06-26T05:49:29.491Z,25.60
2019-06-26T05:51:57.056Z,25.70
2019-06-26T05:54:25.464Z,25.80
2019-06-26T05:56:53.096Z,26.00
2019-06-26T05:59:20.687Z,26.10
2019-06-26T06:01:48.127Z,26.20
2019-06-26T06:04:15.761Z,26.30
2019-06-26T06:06:43.347Z,26.30
2019-06-26T06:09:11.019Z,26.50
2019-06-26T06:11:38.617Z,26.50
2019-06-26T06:14:06.074Z,26.70
2019-06-26T06:16:46.328Z,26.80
2019-06-26T06:19:03.040Z,26.90
2019-06-26T06:21:30.659Z,27.00
2019-06-26T06:23:59.350Z,27.00
2019-06-26T06:26:27.610Z,27.10
2019-06-26T06:28:55.239Z,27.10
2019-06-26T06:31:22.770Z,27.20
2019-06-26T06:33:52.428Z,27.20
2019-06-26T06:36:20.144Z,27.20
2019-06-26T06:38:47.731Z,27.30
2019-06-26T06:41:15.220Z,27.30
2019-06-26T06:43:43.871Z,27.40
2019-06-26T06:46:11.453Z,27.40
2019-06-26T06:48:38.998Z,27.40
2019-06-26T06:51:09.083Z,27.50
2019-06-26T06:53:36.803Z,27.60
2019-06-26T06:56:04.571Z,27.60
2019-06-26T06:58:32.193Z,27.60
2019-06-26T07:00:59.908Z,27.70
2019-06-26T07:03:27.551Z,27.70
2019-06-26T07:05:55.183Z,27.70
2019-06-26T07:08:22.691Z,27.70
2019-06-26T07:10:50.332Z,27.70
2019-06-26T07:13:17.946Z,27.80
2019-06-26T07:15:45.629Z,27.80
2019-06-26T07:18:13.178Z,27.90
2019-06-26T07:20:44.337Z,27.90
2019-06-26T07:23:10.304Z,27.90
2019-06-26T07:25:37.895Z,27.90
2019-06-26T07:28:05.544Z,28.00
2019-06-26T07:30:33.119Z,28.10
2019-06-26T07:33:00.690Z,28.10
2019-06-26T07:35:28.046Z,28.20
2019-06-26T07:37:55.603Z,28.30
2019-06-26T07:40:23.207Z,28.40
2019-06-26T07:42:50.901Z,28.50
2019-06-26T07:45:18.439Z,28.50
2019-06-26T07:47:46.472Z,28.50
2019-06-26T07:50:14.064Z,28.50
2019-06-26T07:52:43.784Z,28.50
2019-06-26T07:55:12.389Z,28.60
2019-06-26T07:57:40.032Z,28.60
2019-06-26T08:00:07.745Z,28.70
2019-06-26T08:02:35.282Z,28.70
2019-06-26T08:05:03.136Z,28.70
2019-06-26T08:07:30.927Z,28.80
2019-06-26T08:09:58.475Z,28.80
2019-06-26T08:12:26.044Z,28.80
2019-06-26T08:14:53.681Z,28.80
2019-06-26T08:17:22.330Z,28.80
2019-06-26T08:19:49.788Z,28.90
2019-06-26T08:22:17.168Z,28.90
2019-06-26T08:24:44.952Z,28.90
2019-06-26T08:27:13.290Z,28.90
2019-06-26T08:29:40.974Z,29.00
2019-06-26T08:32:08.538Z,29.00
2019-06-26T08:34:35.986Z,29.00
2019-06-26T08:37:03.578Z,29.00
2019-06-26T08:39:31.128Z,29.00
2019-06-26T08:41:58.757Z,29.00
2019-06-26T08:44:26.271Z,29.10
2019-06-26T08:46:53.710Z,29.20
2019-06-26T08:49:25.305Z,29.20
2019-06-26T08:51:50.586Z,29.20
2019-06-26T08:54:18.182Z,29.20
2019-06-26T08:56:47.147Z,29.30
2019-06-26T08:59:14.715Z,29.40
2019-06-26T09:01:42.199Z,29.40
2019-06-26T09:04:09.660Z,29.50
2019-06-26T09:06:37.199Z,29.50
2019-06-26T09:09:06.621Z,29.50
2019-06-26T09:11:34.918Z,29.50
2019-06-26T09:14:02.616Z,29.60
2019-06-26T09:16:30.331Z,29.60
2019-06-26T09:18:57.764Z,29.70
2019-06-26T09:21:25.326Z,29.60
2019-06-26T09:23:52.932Z,29.70
2019-06-26T09:26:20.297Z,29.70
2019-06-26T09:28:47.966Z,29.70
2019-06-26T09:31:15.452Z,29.80
2019-06-26T09:33:43.184Z,29.80
2019-06-26T09:36:10.690Z,29.90
2019-06-26T09:38:38.273Z,29.90
2019-06-26T09:41:05.688Z,29.90
2019-06-26T09:43:33.125Z,29.90
2019-06-26T09:46:00.733Z,29.90
2019-06-26T09:48:29.447Z,29.90
2019-06-26T09:50:57.041Z,29.90
2019-06-26T09:53:24.613Z,29.90
2019-06-26T09:55:52.148Z,30.00
2019-06-26T09:58:19.715Z,30.00
2019-06-26T10:00:48.371Z,30.00
2019-06-26T10:03:15.798Z,29.90
2019-06-26T10:05:43.327Z,30.10
2019-06-26T10:08:10.747Z,30.10
2019-06-26T10:10:38.197Z,30.10
2019-06-26T10:13:05.909Z,30.10
2019-06-26T10:15:33.492Z,30.00
2019-06-26T10:18:01.058Z,30.00
2019-06-26T10:20:28.679Z,30.10
2019-06-26T10:22:56.402Z,30.00
2019-06-26T10:25:23.950Z,30.10
2019-06-26T10:27:51.560Z,30.20
2019-06-26T10:30:19.321Z,30.20
2019-06-26T10:32:47.354Z,30.20
2019-06-26T10:35:15.401Z,30.20
2019-06-26T10:37:42.915Z,30.20
2019-06-26T10:40:10.627Z,30.20
2019-06-26T10:42:38.104Z,30.20
2019-06-26T10:45:06.234Z,30.10
2019-06-26T10:47:33.712Z,30.10
2019-06-26T10:50:01.300Z,30.10
2019-06-26T10:52:29.100Z,30.10
2019-06-26T10:54:56.580Z,30.00
2019-06-26T10:57:24.181Z,30.00
2019-06-26T10:59:55.536Z,30.00
2019-06-26T11:02:21.268Z,30.00
2019-06-26T11:04:48.981Z,30.00
2019-06-26T11:07:16.554Z,29.90
2019-06-26T11:09:44.007Z,29.90
2019-06-26T11:12:11.565Z,29.90
2019-06-26T11:14:39.222Z,29.90
2019-06-26T11:17:06.798Z,29.90
2019-06-26T11:19:43.763Z,29.80
2019-06-26T11:22:04.167Z,29.80
2019-06-26T11:24:31.763Z,29.80
2019-06-26T11:26:59.224Z,29.80
2019-06-26T11:29:26.851Z,29.70
2019-06-26T11:31:55.180Z,29.70
2019-06-26T11:34:22.761Z,29.60
2019-06-26T11:37:03.163Z,29.70
2019-06-26T11:39:19.514Z,29.70
2019-06-26T11:41:47.052Z,29.70
2019-06-26T11:44:14.667Z,29.60
2019-06-26T11:46:42.259Z,29.60
2019-06-26T11:49:10.418Z,29.50
2019-06-26T11:51:37.963Z,29.50
2019-06-26T11:54:05.551Z,29.50
2019-06-26T11:56:33.136Z,29.50
2019-06-26T11:59:00.831Z,29.50
2019-06-26T12:01:28.465Z,29.50
2019-06-26T12:03:56.085Z,29.50
2019-06-26T12:06:23.724Z,29.70
2019-06-26T12:08:51.305Z,29.60
2019-06-26T12:11:18.731Z,29.60
2019-06-26T12:13:46.311Z,29.50
2019-06-26T12:16:13.766Z,29.40
2019-06-26T12:18:41.798Z,29.30
2019-06-26T12:21:10.022Z,29.20
2019-06-26T12:23:37.609Z,29.20
2019-06-26T12:26:05.237Z,29.20
2019-06-26T12:28:32.833Z,29.10
2019-06-26T12:31:00.339Z,29.10
2019-06-26T12:33:27.801Z,29.10
2019-06-26T12:35:55.446Z,29.10
2019-06-26T12:38:23.165Z,29.10
2019-06-26T12:40:50.883Z,29.00
2019-06-26T12:43:18.395Z,28.90
2019-06-26T12:45:47.509Z,28.80
2019-06-26T12:48:16.280Z,28.80
2019-06-26T12:50:44.386Z,28.80
2019-06-26T12:53:12.013Z,28.70
2019-06-26T12:55:39.599Z,28.70
2019-06-26T12:58:14.752Z,28.70
2019-06-26T13:00:36.629Z,28.70
2019-06-26T13:03:04.914Z,28.70
2019-06-26T13:05:32.302Z,28.60
2019-06-26T13:07:59.902Z,28.60
2019-06-26T13:10:27.504Z,28.50
2019-06-26T13:12:55.091Z,28.40
2019-06-26T13:15:22.682Z,28.40
2019-06-26T13:17:50.243Z,28.30
2019-06-26T13:20:18.238Z,28.30
2019-06-26T13:22:45.952Z,28.30
2019-06-26T13:25:16.085Z,28.30
2019-06-26T13:27:43.817Z,28.30
2019-06-26T13:30:11.823Z,28.20
2019-06-26T13:32:39.344Z,28.10
2019-06-26T13:35:08.008Z,28.10
2019-06-26T13:37:35.423Z,28.00
2019-06-26T13:40:03.261Z,28.00
2019-06-26T13:42:31.092Z,27.90
2019-06-26T13:44:59.005Z,27.80
2019-06-26T13:47:26.728Z,27.70
2019-06-26T13:49:54.308Z,27.70
2019-06-26T13:52:21.883Z,27.60
2019-06-26T13:54:49.319Z,27.60
2019-06-26T13:57:16.946Z,27.50
2019-06-26T13:59:44.678Z,27.50
2019-06-26T14:02:12.161Z,27.40
2019-06-26T14:04:39.821Z,27.50
2019-06-26T14:07:08.680Z,27.40
2019-06-26T14:09:36.903Z,27.30
2019-06-26T14:12:04.900Z,27.10
2019-06-26T14:14:52.531Z,27.10
2019-06-26T14:17:02.056Z,27.10
2019-06-26T14:19:29.578Z,27.00
2019-06-26T14:21:57.111Z,26.90
2019-06-26T14:24:25.126Z,26.90
2019-06-26T14:26:52.522Z,26.90
2019-06-26T14:29:21.179Z,26.90
2019-06-26T14:31:49.112Z,26.90
2019-06-26T14:34:16.644Z,26.80
2019-06-26T14:36:44.127Z,26.70
2019-06-26T14:39:11.916Z,26.70
2019-06-26T14:41:39.492Z,26.70
2019-06-26T14:44:07.040Z,26.60
2019-06-26T14:46:34.468Z,26.60
2019-06-26T14:49:01.971Z,26.60
2019-06-26T14:51:42.281Z,26.60
2019-06-26T14:53:58.995Z,26.60
2019-06-26T14:56:27.173Z,26.60
2019-06-26T14:58:54.719Z,26.50
2019-06-26T15:01:22.322Z,26.50
2019-06-26T15:03:49.901Z,26.40
2019-06-26T15:06:17.482Z,26.30
2019-06-26T15:08:45.026Z,26.20
2019-06-26T15:11:15.502Z,26.10
2019-06-26T15:13:41.967Z,26.00
2019-06-26T15:16:09.429Z,26.00
2019-06-26T15:18:36.888Z,26.00
2019-06-26T15:21:04.403Z,26.00
2019-06-26T15:23:31.904Z,26.00
2019-06-26T15:25:59.453Z,26.00
2019-06-26T15:28:26.863Z,26.00
2019-06-26T15:30:54.390Z,25.90
2019-06-26T15:33:22.078Z,25.90
2019-06-26T15:35:49.581Z,25.80
2019-06-26T15:38:17.088Z,25.80
2019-06-26T15:40:44.597Z,25.70
2019-06-26T15:43:12.817Z,25.70
2019-06-26T15:45:42.488Z,25.60
2019-06-26T15:48:09.988Z,25.70
2019-06-26T15:50:37.563Z,25.60
2019-06-26T15:53:05.214Z,25.60
2019-06-26T15:55:32.808Z,25.40
2019-06-26T15:58:00.421Z,25.40
2019-06-26T16:00:28.050Z,25.30
2019-06-26T16:02:55.519Z,25.30
2019-06-26T16:05:23.409Z,25.20
2019-06-26T16:07:50.979Z,25.00
2019-06-26T16:10:18.511Z,25.00
2019-06-26T16:12:46.059Z,24.90
2019-06-26T16:15:14.316Z,24.90
2019-06-26T16:18:01.551Z,24.90
2019-06-26T16:20:29.022Z,24.80
2019-06-26T16:22:56.680Z,24.80
2019-06-26T16:25:24.431Z,24.80
2019-06-26T16:28:04.641Z,24.80
2019-06-26T16:30:22.394Z,24.80
2019-06-26T16:32:49.976Z,24.80
2019-06-26T16:35:18.698Z,24.90
2019-06-26T16:37:46.407Z,24.90
2019-06-26T16:40:14.134Z,24.90
2019-06-26T16:42:41.714Z,24.90
2019-06-26T16:45:09.270Z,25.00
2019-06-26T16:47:36.806Z,24.90
2019-06-26T16:50:04.391Z,24.80
2019-06-26T16:52:47.467Z,24.70
2019-06-26T16:55:01.557Z,24.60
2019-06-26T16:57:29.141Z,24.50
2019-06-26T17:00:08.935Z,24.30
2019-06-26T17:02:26.238Z,24.10
2019-06-26T17:04:53.858Z,24.00
2019-06-26T17:07:21.678Z,23.80
2019-06-26T17:09:49.102Z,23.60
2019-06-26T17:12:45.559Z,23.60
2019-06-26T17:15:14.042Z,23.70
2019-06-26T17:17:46.908Z,23.70
2019-06-26T17:20:22.680Z,23.70
2019-06-26T17:23:04.974Z,23.70
2019-06-26T17:25:32.701Z,23.70
2019-06-26T17:28:05.328Z,23.80
2019-06-26T17:30:54.083Z,24.00
2019-06-26T17:33:25.496Z,23.90
2019-06-26T17:35:55.939Z,23.70
2019-06-26T17:38:27.269Z,23.60
2019-06-26T17:40:55.498Z,23.50
2019-06-26T17:43:27.561Z,23.30
2019-06-26T17:46:15.465Z,23.10
2019-06-26T17:48:52.839Z,23.00
2019-06-26T17:51:43.490Z,22.70
2019-06-26T17:54:16.778Z,22.60
2019-06-26T18:02:22.996Z,22.10
2019-06-26T18:04:50.563Z,21.90
2019-06-26T18:07:18.057Z,21.80
2019-06-26T18:09:45.779Z,21.70
2019-06-26T18:12:16.277Z,21.60
2019-06-26T18:14:43.948Z,21.50
2019-06-26T18:17:22.040Z,21.50
2019-06-26T18:19:43.626Z,21.40
2019-06-26T18:22:11.158Z,21.30
2019-06-26T18:24:38.703Z,21.20
2019-06-26T18:27:08.653Z,21.10
2019-06-26T18:29:36.383Z,21.10
2019-06-26T18:32:04.294Z,21.00
2019-06-26T18:34:31.946Z,21.00
2019-06-26T18:36:59.485Z,20.90
2019-06-26T18:39:27.124Z,20.80
2019-06-26T18:41:54.709Z,20.80
2019-06-26T18:44:22.267Z,20.80
2019-06-26T18:46:49.944Z,20.70
2019-06-26T18:49:17.630Z,20.70
2019-06-26T18:51:45.259Z,20.60
2019-06-26T18:54:13.032Z,20.60
2019-06-26T18:56:40.875Z,20.50
2019-06-26T18:59:09.508Z,20.50
2019-06-26T19:01:37.560Z,20.50
2019-06-26T19:04:06.093Z,20.40
2019-06-26T19:06:34.442Z,20.40
2019-06-26T19:09:02.216Z,20.30
2019-06-26T19:11:31.758Z,20.20
2019-06-26T19:13:59.311Z,20.20
2019-06-26T19:16:26.764Z,20.30
2019-06-26T19:18:54.438Z,20.20
2019-06-26T19:21:22.134Z,20.20
2019-06-26T19:23:49.773Z,20.10
2019-06-26T19:26:17.301Z,20.10
2019-06-26T19:28:44.952Z,20.00
2019-06-26T19:31:13.577Z,20.00
2019-06-26T19:33:41.245Z,19.90
2019-06-26T19:36:09.050Z,19.90
2019-06-26T19:38:39.824Z,19.80
2019-06-26T19:41:08.610Z,19.70
2019-06-26T19:43:37.348Z,19.70
2019-06-26T19:46:04.997Z,19.70
2019-06-26T19:48:32.723Z,19.60
2019-06-26T19:51:00.784Z,19.50
2019-06-26T19:53:28.953Z,19.50
2019-06-26T19:55:56.612Z,19.50
2019-06-26T19:58:24.331Z,19.40
2019-06-26T20:00:52.140Z,19.40
2019-06-26T20:03:19.728Z,19.40
2019-06-26T20:05:47.446Z,19.40
2019-06-26T20:08:15.343Z,19.30
2019-06-26T20:10:43.057Z,19.30
2019-06-26T20:13:10.876Z,19.30
2019-06-26T20:15:41.149Z,19.30
2019-06-26T20:18:08.881Z,19.30
2019-06-26T20:20:36.678Z,19.20
2019-06-26T20:23:05.515Z,19.20
2019-06-26T20:25:33.645Z,19.20
2019-06-26T20:28:01.529Z,19.20
2019-06-26T20:30:34.331Z,19.10
2019-06-26T20:33:02.566Z,19.10
2019-06-26T20:35:32.000Z,19.20
2019-06-26T20:38:00.349Z,19.10
2019-06-26T20:40:28.795Z,19.10
2019-06-26T20:42:58.660Z,19.00
2019-06-26T20:45:28.713Z,19.00
2019-06-26T20:47:56.586Z,19.00
2019-06-26T20:50:27.330Z,18.90
2019-06-26T20:52:55.265Z,18.90
2019-06-26T20:55:23.292Z,18.80
2019-06-26T20:57:51.248Z,18.80
2019-06-26T21:00:22.369Z,18.80
2019-06-26T21:02:49.027Z,18.70
2019-06-26T21:05:16.896Z,18.70
2019-06-26T21:07:44.900Z,18.70
2019-06-26T21:10:13.024Z,18.80
2019-06-26T21:12:42.201Z,18.80
2019-06-26T21:15:10.313Z,18.80
2019-06-26T21:17:38.043Z,18.70
2019-06-26T21:20:06.372Z,18.60
2019-06-26T21:22:34.080Z,18.60
2019-06-26T21:25:17.028Z,18.60
2019-06-26T21:27:32.361Z,18.60
2019-06-26T21:30:00.184Z,18.60
2019-06-26T21:32:27.748Z,18.50
2019-06-26T21:34:55.454Z,18.60
2019-06-26T21:37:23.311Z,18.50
2019-06-26T21:39:51.119Z,18.50
2019-06-26T21:42:18.685Z,18.40
2019-06-26T21:44:46.483Z,18.40
2019-06-26T21:47:15.606Z,18.40
2019-06-26T21:49:43.110Z,18.30
2019-06-26T21:52:10.672Z,18.30
2019-06-26T21:54:38.148Z,18.30
2019-06-26T21:57:24.089Z,18.30
2019-06-26T22:00:11.298Z,18.30
2019-06-26T22:02:58.026Z,18.30
2019-06-26T22:05:27.838Z,18.20
2019-06-26T22:07:57.302Z,18.10
2019-06-26T22:10:32.239Z,18.10
2019-06-26T22:12:59.718Z,18.00
2019-06-26T22:15:27.540Z,18.00
2019-06-26T22:17:55.226Z,17.90
2019-06-26T22:20:22.921Z,17.90
2019-06-26T22:22:50.311Z,17.90
2019-06-26T22:25:17.968Z,17.80
2019-06-26T22:27:45.646Z,17.80
2019-06-26T22:30:14.965Z,17.80
2019-06-26T22:32:42.566Z,17.70
2019-06-26T22:35:13.967Z,17.70
2019-06-26T22:37:41.561Z,17.70
2019-06-26T22:40:09.083Z,17.70
2019-06-26T22:42:36.658Z,17.70
2019-06-26T22:45:04.495Z,17.60
2019-06-26T22:47:32.111Z,17.60
2019-06-26T22:49:59.699Z,17.50
2019-06-26T22:52:26.999Z,17.50
2019-06-26T22:54:54.509Z,17.50
2019-06-26T22:57:22.125Z,17.40
2019-06-26T22:59:49.671Z,17.40
2019-06-26T23:02:17.295Z,17.40
2019-06-26T23:04:45.698Z,17.40
2019-06-26T23:07:13.931Z,17.40
2019-06-26T23:09:41.279Z,17.30
2019-06-26T23:12:10.830Z,17.30
2019-06-26T23:14:38.294Z,17.30
2019-06-26T23:17:05.997Z,17.30
2019-06-26T23:19:33.724Z,17.20
2019-06-26T23:22:01.232Z,17.20
2019-06-26T23:24:28.762Z,17.20
2019-06-26T23:26:56.331Z,17.20
2019-06-26T23:29:24.038Z,17.20
2019-06-26T23:31:51.522Z,17.10
2019-06-26T23:34:19.160Z,17.10
2019-06-26T23:36:47.661Z,17.10
2019-06-26T23:39:35.194Z,17.00
2019-06-26T23:42:02.823Z,17.00
2019-06-26T23:44:30.386Z,17.00
2019-06-26T23:46:58.149Z,16.90
2019-06-26T23:49:26.203Z,16.80
2019-06-26T23:51:54.350Z,16.80
2019-06-26T23:54:22.026Z,16.80
2019-06-26T23:56:49.655Z,16.80
2019-06-26T23:59:17.460Z,16.70
